createdAt,value
2023-03-17T00:01:55.219Z,5.45
2023-03-17T00:06:52.947Z,4.75
2023-03-17T00:09:22.618Z,4.88
2023-03-17T00:11:51.010Z,4.80
2023-03-17T00:14:20.063Z,4.97
2023-03-17T00:16:50.756Z,4.30
2023-03-17T00:19:29.889Z,4.10
2023-03-17T00:21:59.100Z,4.60
2023-03-17T00:24:27.481Z,3.80
2023-03-17T00:26:55.783Z,4.20
2023-03-17T00:29:25.492Z,4.50
2023-03-17T00:31:54.596Z,4.13
2023-03-17T00:34:25.509Z,3.72
2023-03-17T00:36:53.793Z,3.90
2023-03-17T00:39:25.430Z,4.20
2023-03-17T00:41:55.988Z,4.28
2023-03-17T00:44:24.274Z,4.13
2023-03-17T00:46:52.664Z,4.10
2023-03-17T00:49:23.944Z,4.03
2023-03-17T00:51:54.268Z,3.97
2023-03-17T00:54:23.624Z,3.90
2023-03-17T00:56:53.290Z,4.28
2023-03-17T00:59:27.389Z,4.20
2023-03-17T01:01:56.520Z,4.03
2023-03-17T01:04:25.470Z,3.65
2023-03-17T01:06:55.613Z,4.00
2023-03-17T01:09:27.515Z,3.67
2023-03-17T01:11:56.642Z,4.40
2023-03-17T01:14:25.905Z,4.15
2023-03-17T01:16:55.239Z,4.18
2023-03-17T01:19:24.128Z,3.83
2023-03-17T01:21:52.455Z,3.53
2023-03-17T01:24:22.223Z,4.28
2023-03-17T01:26:50.902Z,3.65
2023-03-17T01:29:19.251Z,4.22
2023-03-17T01:31:47.848Z,3.78
2023-03-17T01:34:16.512Z,3.70
2023-03-17T01:36:44.960Z,3.90
2023-03-17T01:39:13.364Z,3.47
2023-03-17T01:41:43.226Z,3.95
2023-03-17T01:44:16.984Z,4.43
2023-03-17T01:46:45.994Z,4.25
2023-03-17T01:49:19.517Z,4.05
2023-03-17T01:52:01.281Z,3.83
2023-03-17T01:59:39.571Z,3.67
2023-03-17T02:02:11.963Z,3.58
2023-03-17T02:04:40.520Z,4.00
2023-03-17T02:07:10.180Z,4.10
2023-03-17T02:09:43.028Z,3.67
2023-03-17T02:12:13.966Z,3.72
2023-03-17T02:14:42.780Z,3.58
2023-03-17T02:17:11.078Z,3.90
2023-03-17T02:19:39.464Z,3.65
2023-03-17T02:22:09.358Z,3.25
2023-03-17T02:24:40.514Z,3.97
2023-03-17T02:27:13.637Z,3.60
2023-03-17T02:29:42.667Z,3.67
2023-03-17T02:32:11.217Z,3.63
2023-03-17T02:34:39.585Z,3.70
2023-03-17T02:37:09.554Z,4.00
2023-03-17T02:39:38.034Z,3.22
2023-03-17T02:42:07.587Z,4.28
2023-03-17T02:44:36.160Z,4.13
2023-03-17T02:47:06.540Z,4.07
2023-03-17T02:49:35.867Z,3.65
2023-03-17T02:52:04.883Z,4.43
2023-03-17T02:54:34.740Z,4.05
2023-03-17T02:57:03.139Z,3.92
2023-03-17T02:59:32.037Z,4.03
2023-03-17T03:02:01.022Z,3.88
2023-03-17T03:04:29.669Z,4.07
2023-03-17T03:06:58.070Z,3.80
2023-03-17T03:09:26.561Z,3.85
2023-03-17T03:11:56.280Z,4.07
2023-03-17T03:14:25.158Z,3.92
2023-03-17T03:16:53.564Z,3.72
2023-03-17T03:19:22.354Z,4.28
2023-03-17T03:21:51.218Z,4.00
2023-03-17T03:24:19.606Z,3.75
2023-03-17T03:26:48.272Z,4.07
2023-03-17T03:29:17.971Z,3.95
2023-03-17T03:31:48.276Z,3.83
2023-03-17T03:34:16.920Z,3.63
2023-03-17T03:36:45.313Z,3.88
2023-03-17T03:39:14.545Z,3.80
2023-03-17T03:41:44.826Z,3.83
2023-03-17T03:44:13.091Z,3.70
2023-03-17T03:46:43.146Z,4.25
2023-03-17T03:49:11.501Z,4.30
2023-03-17T03:51:39.702Z,3.83
2023-03-17T03:54:08.109Z,4.03
2023-03-17T03:56:36.327Z,4.00
2023-03-17T03:59:04.802Z,3.55
2023-03-17T04:01:33.057Z,3.65
2023-03-17T04:04:03.095Z,4.28
2023-03-17T04:06:31.394Z,3.85
2023-03-17T04:08:59.647Z,3.50
2023-03-17T04:11:28.003Z,4.05
2023-03-17T04:13:56.290Z,3.67
2023-03-17T04:16:24.507Z,3.78
2023-03-17T04:18:52.784Z,4.60
2023-03-17T04:21:22.922Z,4.00
2023-03-17T04:23:51.270Z,3.90
2023-03-17T04:26:19.577Z,4.05
2023-03-17T04:28:47.865Z,3.83
2023-03-17T04:31:17.090Z,4.38
2023-03-17T04:33:45.698Z,3.90
2023-03-17T04:36:19.351Z,4.10
2023-03-17T04:38:49.103Z,4.35
2023-03-17T04:41:17.861Z,4.35
2023-03-17T04:43:46.312Z,3.72
2023-03-17T04:46:14.990Z,3.58
2023-03-17T04:48:43.864Z,3.25
2023-03-17T04:51:12.154Z,3.63
2023-03-17T04:53:40.690Z,4.07
2023-03-17T04:56:10.687Z,3.97
2023-03-17T04:58:39.528Z,3.75
2023-03-17T05:01:08.826Z,4.28
2023-03-17T05:03:37.401Z,3.55
2023-03-17T05:06:07.258Z,4.30
2023-03-17T05:08:35.606Z,4.18
2023-03-17T05:11:03.844Z,4.03
2023-03-17T05:13:33.456Z,3.70
2023-03-17T05:16:02.264Z,3.78
2023-03-17T05:18:31.010Z,3.55
2023-03-17T05:20:59.314Z,3.97
2023-03-17T05:23:27.884Z,3.55
2023-03-17T05:25:56.356Z,3.72
2023-03-17T05:28:24.894Z,3.60
2023-03-17T05:30:55.342Z,3.53
2023-03-17T05:33:24.206Z,4.32
2023-03-17T05:35:52.525Z,4.05
2023-03-17T05:38:20.981Z,3.83
2023-03-17T05:40:53.023Z,3.15
2023-03-17T05:43:21.814Z,3.88
2023-03-17T05:45:50.603Z,3.90
2023-03-17T05:48:20.371Z,3.92
2023-03-17T05:50:48.762Z,3.85
2023-03-17T05:53:17.469Z,3.60
2023-03-17T05:55:46.108Z,3.75
2023-03-17T05:58:16.065Z,3.53
2023-03-17T06:00:45.233Z,3.80
2023-03-17T06:03:13.625Z,3.65
2023-03-17T06:05:43.665Z,4.03
2023-03-17T06:08:12.310Z,3.55
2023-03-17T06:10:41.315Z,3.75
2023-03-17T06:13:09.626Z,3.58
2023-03-17T06:15:38.045Z,3.42
2023-03-17T06:18:06.829Z,3.65
2023-03-17T06:20:36.695Z,3.28
2023-03-17T06:23:06.993Z,3.40
2023-03-17T06:25:35.951Z,3.53
2023-03-17T06:28:05.459Z,3.70
2023-03-17T06:30:34.847Z,3.70
2023-03-17T06:33:03.492Z,3.88
2023-03-17T06:35:33.413Z,3.53
2023-03-17T06:38:02.313Z,3.58
2023-03-17T06:40:34.060Z,3.92
2023-03-17T06:43:03.078Z,3.75
2023-03-17T06:45:33.315Z,4.07
2023-03-17T06:48:02.496Z,3.50
2023-03-17T06:50:30.870Z,3.58
2023-03-17T06:52:59.158Z,3.80
2023-03-17T06:55:27.482Z,3.70
2023-03-17T06:57:57.112Z,4.20
2023-03-17T07:00:25.626Z,4.15
2023-03-17T07:02:53.857Z,3.47
2023-03-17T07:05:22.860Z,4.20
2023-03-17T07:07:51.223Z,3.78
2023-03-17T07:10:20.343Z,4.10
2023-03-17T07:12:49.084Z,3.67
2023-03-17T07:15:18.897Z,3.80
2023-03-17T07:17:48.009Z,3.13
2023-03-17T07:20:16.741Z,3.70
2023-03-17T07:22:45.112Z,3.65
2023-03-17T07:25:13.551Z,4.25
2023-03-17T07:27:42.216Z,3.63
2023-03-17T07:30:12.881Z,3.90
2023-03-17T07:32:43.811Z,3.87
2023-03-17T07:35:12.232Z,3.53
2023-03-17T07:37:40.730Z,3.70
2023-03-17T07:40:10.320Z,3.53
2023-03-17T07:42:39.223Z,3.88
2023-03-17T07:45:08.816Z,3.78
2023-03-17T07:47:37.117Z,3.67
2023-03-17T07:50:07.812Z,3.45
2023-03-17T07:52:36.386Z,3.50
2023-03-17T07:55:04.873Z,3.50
2023-03-17T07:57:33.393Z,3.42
2023-03-17T08:00:01.691Z,3.78
2023-03-17T08:02:40.197Z,3.67
2023-03-17T08:05:11.698Z,3.20
2023-03-17T08:07:40.585Z,3.60
2023-03-17T08:10:10.203Z,3.40
2023-03-17T08:12:38.652Z,3.63
2023-03-17T08:15:09.384Z,3.70
2023-03-17T08:17:38.148Z,3.37
2023-03-17T08:20:07.324Z,3.50
2023-03-17T08:22:37.096Z,3.47
2023-03-17T08:25:05.780Z,3.60
2023-03-17T08:27:34.326Z,3.78
2023-03-17T08:30:03.199Z,3.88
2023-03-17T08:32:31.543Z,3.90
2023-03-17T08:35:00.500Z,3.45
2023-03-17T08:37:28.951Z,3.65
2023-03-17T08:39:59.092Z,3.70
2023-03-17T08:42:27.564Z,3.50
2023-03-17T08:44:55.927Z,3.30
2023-03-17T08:47:25.002Z,3.55
2023-03-17T08:49:53.350Z,3.30
2023-03-17T08:52:21.563Z,3.40
2023-03-17T08:54:49.994Z,3.40
2023-03-17T08:57:19.817Z,3.55
2023-03-17T08:59:48.691Z,3.10
2023-03-17T09:02:17.141Z,3.50
2023-03-17T09:04:45.529Z,2.70
2023-03-17T09:07:15.142Z,3.38
2023-03-17T09:09:43.532Z,3.33
2023-03-17T09:12:12.137Z,2.88
2023-03-17T09:14:44.189Z,2.80
2023-03-17T09:17:14.543Z,3.05
2023-03-17T09:19:43.982Z,2.50
2023-03-17T09:22:15.144Z,2.72
2023-03-17T09:24:44.371Z,2.90
2023-03-17T09:27:12.913Z,2.90
2023-03-17T09:29:43.300Z,2.60
2023-03-17T09:32:12.102Z,3.47
2023-03-17T09:34:42.138Z,2.95
2023-03-17T09:37:10.937Z,2.58
2023-03-17T09:39:39.253Z,2.55
2023-03-17T09:42:18.626Z,2.50
2023-03-17T09:45:07.078Z,2.30
2023-03-17T09:47:52.724Z,2.40
2023-03-17T09:50:26.176Z,2.60
2023-03-17T09:52:58.489Z,2.53
2023-03-17T09:55:30.037Z,2.47
2023-03-17T09:58:00.844Z,2.55
2023-03-17T10:00:31.311Z,2.17
2023-03-17T10:03:01.599Z,2.17
2023-03-17T10:05:31.950Z,2.30
2023-03-17T10:08:19.023Z,2.35
2023-03-17T10:11:00.734Z,2.38
2023-03-17T10:13:43.177Z,2.00
2023-03-17T10:16:17.676Z,1.98
2023-03-17T10:18:51.092Z,2.20
2023-03-17T10:21:22.548Z,2.10
2023-03-17T10:23:51.429Z,1.75
2023-03-17T10:26:28.755Z,1.80
2023-03-17T10:28:57.424Z,1.70
2023-03-17T10:31:33.289Z,1.50
2023-03-17T10:34:13.777Z,1.63
2023-03-17T10:36:44.553Z,1.60
2023-03-17T10:39:15.580Z,1.40
2023-03-17T10:41:53.674Z,2.00
2023-03-17T10:44:29.519Z,1.52
2023-03-17T10:46:59.359Z,1.65
2023-03-17T10:49:27.676Z,1.55
2023-03-17T10:51:56.174Z,2.15
2023-03-17T10:54:26.572Z,1.52
2023-03-17T10:57:02.313Z,1.30
2023-03-17T10:59:33.144Z,1.45
2023-03-17T11:02:09.462Z,1.75
2023-03-17T11:04:41.863Z,1.50
2023-03-17T11:07:16.742Z,1.42
2023-03-17T11:09:45.265Z,1.48
2023-03-17T11:12:25.702Z,1.30
2023-03-17T11:15:00.259Z,1.30
2023-03-17T11:17:48.890Z,1.30
2023-03-17T11:20:45.384Z,1.30
2023-03-17T11:23:27.394Z,1.55
2023-03-17T11:26:06.689Z,1.58
2023-03-17T11:28:41.200Z,1.45
2023-03-17T11:31:15.510Z,1.45
2023-03-17T11:33:55.043Z,1.48
2023-03-17T11:36:39.979Z,1.50
2023-03-17T11:39:14.949Z,1.65
2023-03-17T11:41:52.290Z,1.67
2023-03-17T11:44:49.840Z,1.83
2023-03-17T11:47:35.524Z,1.38
2023-03-17T11:50:17.680Z,1.60
2023-03-17T11:52:57.909Z,1.67
2023-03-17T11:55:31.188Z,1.60
2023-03-17T11:58:02.627Z,1.27
2023-03-17T12:00:34.799Z,1.70
2023-03-17T12:03:16.064Z,2.03
2023-03-17T12:05:50.209Z,1.45
2023-03-17T12:08:25.581Z,1.80
2023-03-17T12:10:56.535Z,1.63
2023-03-17T12:13:30.462Z,1.80
2023-03-17T12:16:05.570Z,1.70
2023-03-17T12:18:38.292Z,1.92
2023-03-17T12:21:13.988Z,1.80
2023-03-17T12:23:50.058Z,2.13
2023-03-17T12:26:21.219Z,2.17
2023-03-17T12:28:55.663Z,2.00
2023-03-17T12:31:29.456Z,1.70
2023-03-17T12:34:06.554Z,2.15
2023-03-17T12:36:39.207Z,1.77
2023-03-17T12:39:10.686Z,1.90
2023-03-17T12:42:05.670Z,2.28
2023-03-17T12:45:02.027Z,1.90
2023-03-17T12:47:53.600Z,2.10
2023-03-17T12:51:05.945Z,2.15
2023-03-17T12:53:38.063Z,2.30
2023-03-17T12:56:15.402Z,2.08
2023-03-17T12:58:46.653Z,2.00
2023-03-17T13:01:26.502Z,1.60
2023-03-17T13:04:03.154Z,1.80
2023-03-17T13:06:38.180Z,1.73
2023-03-17T13:09:37.796Z,1.80
2023-03-17T13:12:08.769Z,1.90
2023-03-17T13:14:43.632Z,1.90
2023-03-17T13:17:34.861Z,1.83
2023-03-17T13:20:15.988Z,2.28
2023-03-17T13:23:03.416Z,2.20
2023-03-17T13:25:36.006Z,2.70
2023-03-17T13:28:27.219Z,2.60
2023-03-17T13:31:11.462Z,2.80
2023-03-17T13:33:46.543Z,2.70
2023-03-17T13:36:31.683Z,2.88
2023-03-17T13:39:24.917Z,3.08
2023-03-17T13:42:15.707Z,3.08
2023-03-17T13:45:17.557Z,3.35
2023-03-17T13:47:47.465Z,3.10
2023-03-17T13:50:18.188Z,3.15
2023-03-17T13:52:49.720Z,3.37
2023-03-17T13:58:34.505Z,2.90
2023-03-17T14:01:07.305Z,3.38
2023-03-17T14:03:41.987Z,4.00
2023-03-17T14:06:13.543Z,3.90
2023-03-17T14:08:47.060Z,3.53
2023-03-17T14:11:24.026Z,3.58
2023-03-17T14:14:09.883Z,3.60
2023-03-17T14:16:45.514Z,3.70
2023-03-17T14:19:21.600Z,4.22
2023-03-17T14:21:50.148Z,3.80
2023-03-17T14:24:22.762Z,4.38
2023-03-17T14:26:52.328Z,4.82
2023-03-17T14:29:26.244Z,5.05
2023-03-17T14:32:04.173Z,5.05
2023-03-17T14:34:33.137Z,4.53
2023-03-17T14:37:06.157Z,4.57
2023-03-17T14:39:34.427Z,4.05
2023-03-17T14:42:04.135Z,4.30
2023-03-17T14:44:41.657Z,4.40
2023-03-17T14:47:19.249Z,4.43
2023-03-17T14:49:48.052Z,4.05
2023-03-17T14:52:21.679Z,4.00
2023-03-17T14:54:53.615Z,4.07
2023-03-17T14:57:27.148Z,4.15
2023-03-17T15:00:01.966Z,3.80
2023-03-17T15:02:34.391Z,3.88
2023-03-17T15:05:08.255Z,3.88
2023-03-17T15:07:41.506Z,3.55
2023-03-17T15:10:17.059Z,3.70
2023-03-17T15:12:48.293Z,4.13
2023-03-17T15:15:25.806Z,3.78
2023-03-17T15:17:56.909Z,3.80
2023-03-17T15:20:25.841Z,3.38
2023-03-17T15:22:59.210Z,3.10
2023-03-17T15:25:34.520Z,4.00
2023-03-17T15:28:03.465Z,3.55
2023-03-17T15:30:46.194Z,4.47
2023-03-17T15:33:22.245Z,4.03
2023-03-17T15:35:51.713Z,4.40
2023-03-17T15:38:19.998Z,4.00
2023-03-17T15:40:48.771Z,4.68
2023-03-17T15:43:18.203Z,4.30
2023-03-17T15:45:47.954Z,4.55
2023-03-17T15:48:21.246Z,4.70
2023-03-17T15:50:51.352Z,4.45
2023-03-17T15:53:20.038Z,4.20
2023-03-17T15:55:48.784Z,4.82
2023-03-17T15:58:17.032Z,4.13
2023-03-17T16:00:51.048Z,4.30
2023-03-17T16:03:25.587Z,4.95
2023-03-17T16:05:54.234Z,4.57
2023-03-17T16:08:23.184Z,4.30
2023-03-17T16:10:52.528Z,4.15
2023-03-17T16:13:21.016Z,4.20
2023-03-17T16:15:56.490Z,4.10
2023-03-17T16:18:32.298Z,4.35
2023-03-17T16:21:01.039Z,4.20
2023-03-17T16:23:32.518Z,4.53
2023-03-17T16:26:14.338Z,4.32
2023-03-17T16:28:45.357Z,4.30
2023-03-17T16:31:25.156Z,4.35
2023-03-17T16:33:54.716Z,53.97
2023-03-17T16:36:24.348Z,72.97
2023-03-17T16:38:54.305Z,139.02
2023-03-17T16:41:25.116Z,97.13
2023-03-17T16:43:58.648Z,93.15
2023-03-17T16:46:34.596Z,79.30
2023-03-17T16:49:04.234Z,188.38
2023-03-17T16:51:32.770Z,201.02
2023-03-17T16:54:01.093Z,89.65
2023-03-17T16:56:31.610Z,182.95
2023-03-17T16:59:00.169Z,96.63
2023-03-17T17:01:30.574Z,78.85
2023-03-17T17:03:59.012Z,63.80
2023-03-17T17:06:27.262Z,43.70
2023-03-17T17:08:55.548Z,34.92
2023-03-17T17:11:23.818Z,29.83
2023-03-17T17:13:52.256Z,115.03
2023-03-17T17:16:24.474Z,79.57
2023-03-17T17:18:54.282Z,119.68
2023-03-17T17:21:23.198Z,126.65
2023-03-17T17:23:53.136Z,97.15
2023-03-17T17:26:22.068Z,81.95
2023-03-17T17:28:50.822Z,63.13
2023-03-17T17:31:19.288Z,45.03
2023-03-17T17:33:47.847Z,58.40
2023-03-17T17:36:18.709Z,197.20
2023-03-17T17:38:47.074Z,63.50
2023-03-17T17:41:17.070Z,284.13
2023-03-17T17:43:46.374Z,250.45
2023-03-17T17:46:18.423Z,116.22
2023-03-17T17:48:47.016Z,97.75
2023-03-17T17:51:15.573Z,56.55
2023-03-17T17:53:45.883Z,41.75
2023-03-17T17:56:15.945Z,33.67
2023-03-17T17:58:44.780Z,27.92
2023-03-17T18:01:17.007Z,25.15
2023-03-17T18:03:45.392Z,20.25
2023-03-17T18:06:14.082Z,16.63
2023-03-17T18:08:43.552Z,16.10
2023-03-17T18:11:13.915Z,12.82
2023-03-17T18:13:42.257Z,11.23
2023-03-17T18:16:12.982Z,10.68
2023-03-17T18:18:43.307Z,9.20
2023-03-17T18:21:12.276Z,8.48
2023-03-17T18:23:46.796Z,8.25
2023-03-17T18:26:20.245Z,6.88
2023-03-17T18:28:49.285Z,6.50
2023-03-17T18:31:21.692Z,6.65
2023-03-17T18:33:51.801Z,6.07
2023-03-17T18:36:21.135Z,5.38
2023-03-17T18:38:49.517Z,5.28
2023-03-17T18:41:19.223Z,5.35
2023-03-17T18:43:47.656Z,5.25
2023-03-17T18:46:16.322Z,5.47
2023-03-17T18:48:44.646Z,5.68
2023-03-17T18:51:12.891Z,5.55
2023-03-17T18:53:41.137Z,5.13
2023-03-17T18:56:10.027Z,5.78
2023-03-17T18:58:39.842Z,5.85
2023-03-17T19:01:08.781Z,5.63
2023-03-17T19:03:37.112Z,5.57
2023-03-17T19:06:10.620Z,5.40
2023-03-17T19:08:38.882Z,5.38
2023-03-17T19:11:08.921Z,5.13
2023-03-17T19:13:37.723Z,5.30
2023-03-17T19:16:08.763Z,5.30
2023-03-17T19:18:41.741Z,5.43
2023-03-17T19:21:11.303Z,5.53
2023-03-17T19:23:40.174Z,5.00
2023-03-17T19:26:09.112Z,5.55
2023-03-17T19:28:37.600Z,5.55
2023-03-17T19:31:07.858Z,6.07
2023-03-17T19:33:36.470Z,5.68
2023-03-17T19:36:11.058Z,5.75
2023-03-17T19:38:39.525Z,6.00
2023-03-17T19:41:08.191Z,6.65
2023-03-17T19:43:41.109Z,7.82
2023-03-17T19:46:12.401Z,7.35
2023-03-17T19:48:41.078Z,7.25
2023-03-17T19:51:09.412Z,8.13
2023-03-17T19:53:38.417Z,8.40
2023-03-17T19:56:07.562Z,9.43
2023-03-17T19:58:36.098Z,11.35
2023-03-17T20:01:05.158Z,14.38
2023-03-17T20:03:36.332Z,13.27
2023-03-17T20:06:06.435Z,13.52
2023-03-17T20:08:35.679Z,13.57
2023-03-17T20:11:05.616Z,13.40
2023-03-17T20:13:34.630Z,13.25
2023-03-17T20:16:03.870Z,13.38
2023-03-17T20:18:32.675Z,15.02
2023-03-17T20:21:05.669Z,14.48
2023-03-17T20:23:35.495Z,15.63
2023-03-17T20:26:03.790Z,14.40
2023-03-17T20:28:32.601Z,15.30
2023-03-17T20:31:03.087Z,14.65
2023-03-17T20:33:33.339Z,14.25
2023-03-17T20:36:04.804Z,14.13
2023-03-17T20:38:36.922Z,14.50
2023-03-17T20:41:10.484Z,13.93
2023-03-17T20:43:38.966Z,13.23
2023-03-17T20:46:09.273Z,13.07
2023-03-17T20:48:38.318Z,11.63
2023-03-17T20:51:10.191Z,11.55
2023-03-17T20:53:38.922Z,10.55
2023-03-17T20:56:08.570Z,9.57
2023-03-17T20:58:37.037Z,9.05
2023-03-17T21:01:05.583Z,8.48
2023-03-17T21:03:33.856Z,9.23
2023-03-17T21:06:02.134Z,8.95
2023-03-17T21:08:31.877Z,8.63
2023-03-17T21:11:00.108Z,7.95
2023-03-17T21:13:28.550Z,8.52
2023-03-17T21:15:57.193Z,8.75
2023-03-17T21:18:25.605Z,9.73
2023-03-17T21:20:54.218Z,9.65
2023-03-17T21:23:22.981Z,10.82
2023-03-17T21:25:56.942Z,9.70
2023-03-17T21:28:25.298Z,9.30
2023-03-17T21:30:53.750Z,9.63
2023-03-17T21:33:22.090Z,10.07
2023-03-17T21:35:52.263Z,9.52
2023-03-17T21:38:20.612Z,8.88
2023-03-17T21:40:49.338Z,9.38
2023-03-17T21:43:18.990Z,9.70
2023-03-17T21:45:47.305Z,9.93
2023-03-17T21:48:15.704Z,9.13
2023-03-17T21:50:43.999Z,9.75
2023-03-17T21:53:14.951Z,9.60
2023-03-17T21:55:44.029Z,9.10
2023-03-17T21:58:12.464Z,9.75
2023-03-17T22:00:45.568Z,9.88
2023-03-17T22:03:14.677Z,10.23
2023-03-17T22:05:44.119Z,10.52
2023-03-17T22:08:12.400Z,9.75
2023-03-17T22:10:41.057Z,9.93
2023-03-17T22:13:09.386Z,9.93
2023-03-17T22:15:37.850Z,10.15
2023-03-17T22:18:07.611Z,9.23
2023-03-17T22:20:36.370Z,9.75
2023-03-17T22:23:04.850Z,10.27
2023-03-17T22:25:33.056Z,9.48
2023-03-17T22:28:01.321Z,9.57
2023-03-17T22:30:29.593Z,9.23
2023-03-17T22:32:57.956Z,8.57
2023-03-17T22:35:27.630Z,8.38
2023-03-17T22:37:56.505Z,8.50
2023-03-17T22:40:24.906Z,8.43
2023-03-17T22:42:56.141Z,8.68
2023-03-17T22:45:24.793Z,7.72
2023-03-17T22:47:54.230Z,7.80
2023-03-17T22:50:22.860Z,6.95
2023-03-17T22:52:52.679Z,7.15
2023-03-17T22:55:21.039Z,7.20
2023-03-17T22:57:49.338Z,7.55
2023-03-17T23:00:18.281Z,7.38
2023-03-17T23:02:47.417Z,7.60
2023-03-17T23:05:16.067Z,8.27
2023-03-17T23:07:50.634Z,8.07
2023-03-17T23:10:24.509Z,6.82
2023-03-17T23:12:53.888Z,7.03
2023-03-17T23:15:22.690Z,7.70
2023-03-17T23:17:51.956Z,7.88
2023-03-17T23:20:20.446Z,7.32
2023-03-17T23:22:49.021Z,7.13
2023-03-17T23:25:17.367Z,7.32
2023-03-17T23:27:48.043Z,7.10
2023-03-17T23:30:17.963Z,6.77
2023-03-17T23:32:46.849Z,6.90
2023-03-17T23:35:16.171Z,6.80
2023-03-17T23:37:44.647Z,6.53
2023-03-17T23:40:15.627Z,6.45
2023-03-17T23:42:44.278Z,6.53
2023-03-17T23:45:15.421Z,6.75
2023-03-17T23:47:44.028Z,7.00
2023-03-17T23:50:14.414Z,6.22
2023-03-17T23:52:43.248Z,6.65
2023-03-17T23:55:13.277Z,6.85
2023-03-17T23:57:41.575Z,7.63
